Airfield :
LOGIN :

Register | Disclaimer

   EN    FR    IT 

 










Legend :    VFR   Marginal VFR   IFR   Intensive IFR   Very Intensive IFR
Visi :
Ceiling :
>= 8 km
>= 3000ft
5 to 8 km
1000 to 3000 ft
1500m to 5 km
500 to 1000 ft
800 to 1500m
200 to 500 ft
< 800m
< 200 ft
Symbols :   Thunderstorms  Fog  Heavy snow  Heavy precipitations  Wind > 20 kt
SIGMETs :     Misc.  Thunderstorms  Icing  Turbulence  Mountain Waves  Volcanic Ashes







- Airport Elevation : 25 ft
- IATA code : QCY


EGXC - RAF Coningsby

CURRENT METAR :
  • 222350Z 18008KT CAVOK 03/02 Q1016 BLU

EXPIRED METARs :
  • 222250Z 18007KT CAVOK 03/02 Q1016 BLU NOSIG
  • 222150Z 19006KT 9999 FEW035 BKN220 04/02 Q1015 BLU NOSIG

TAF TAF EGXC
Valid from the 23 at 00:00 until the 23 at 18:00 UTC


222246Z 2300/2318 20010KT 9999 BKN035
BECMG 2306/2308 19015G25KT -RA BKN012
TEMPO 2308/2312 6000 RA
PROB30
TEMPO 2308/2312 4000 RA SCT006
BECMG 2312/2314 23018G28KT FEW020
TEMPO 2314/2318 SCT020
No reported NOTAMs for that airfield.
1 SIGMET reported for the London FIR (EGTT) :
 
Severe mountain waves
EGTT SIGMET 03 VALID 222300/230300 EGRR
EGTT LONDON FIR SEV MTW FCST WI N5500 W00000 - N5200 W00015 - N5200 W00315 - N5500 W00300 - N5500 W00000 FL040/250 STNR NC=



MET'MAP, your aeronautical weather chart ! - Copyright ORBIFLY December 2007 - Disclaimer

ORBIFLY MET'MAP TEAM :

Programming & Development : Alexandra Zaïnal
Concept & Development : Baudouin d'Aumeries
Co-Development & Prog : Marc-Olivier Méhu
Technical & hardware support : Manuel Goepfert

Contact : metmap@orbifly.com




SOURCES & CREDITS :

   NOAA